createdAt,value
2019-05-20T00:02:25.832Z,10.40
2019-05-20T00:04:50.490Z,10.40
2019-05-20T00:07:19.992Z,10.40
2019-05-20T00:09:49.137Z,10.50
2019-05-20T00:12:18.353Z,10.50
2019-05-20T00:14:47.732Z,10.50
2019-05-20T00:17:16.728Z,10.50
2019-05-20T00:19:46.137Z,10.50
2019-05-20T00:22:15.257Z,10.50
2019-05-20T00:24:44.336Z,10.50
2019-05-20T00:27:14.378Z,10.50
2019-05-20T00:29:44.050Z,10.50
2019-05-20T00:32:13.395Z,10.50
2019-05-20T00:34:42.662Z,10.50
2019-05-20T00:37:11.843Z,10.50
2019-05-20T00:39:40.801Z,10.50
2019-05-20T00:42:09.826Z,10.50
2019-05-20T00:44:40.056Z,10.50
2019-05-20T00:47:11.040Z,10.50
2019-05-20T00:49:40.736Z,10.50
2019-05-20T00:52:10.131Z,10.50
2019-05-20T00:54:39.625Z,10.50
2019-05-20T00:57:08.600Z,10.60
2019-05-20T00:59:37.721Z,10.60
2019-05-20T01:02:06.795Z,10.60
2019-05-20T01:04:36.032Z,10.60
2019-05-20T01:07:05.160Z,10.60
2019-05-20T01:09:34.450Z,10.60
2019-05-20T01:12:03.425Z,10.60
2019-05-20T01:14:32.560Z,10.60
2019-05-20T01:17:01.747Z,10.50
2019-05-20T01:19:31.032Z,10.50
2019-05-20T01:22:00.112Z,10.50
2019-05-20T01:24:29.327Z,10.50
2019-05-20T01:26:58.407Z,10.50
2019-05-20T01:29:27.402Z,10.50
2019-05-20T01:31:56.410Z,10.50
2019-05-20T01:34:25.417Z,10.60
2019-05-20T01:36:54.296Z,10.50
2019-05-20T01:39:23.414Z,10.50
2019-05-20T01:41:52.536Z,10.50
2019-05-20T01:44:21.696Z,10.50
2019-05-20T01:46:50.768Z,10.50
2019-05-20T01:49:19.932Z,10.50
2019-05-20T01:51:49.040Z,10.50
2019-05-20T01:54:18.432Z,10.50
2019-05-20T01:56:47.616Z,10.50
2019-05-20T01:59:16.687Z,10.50
2019-05-20T02:01:45.912Z,10.50
2019-05-20T02:04:14.960Z,10.50
2019-05-20T02:06:45.608Z,10.50
2019-05-20T02:09:14.640Z,10.50
2019-05-20T02:11:43.848Z,10.50
2019-05-20T02:14:14.632Z,10.50
2019-05-20T02:16:43.580Z,10.50
2019-05-20T02:19:12.760Z,10.50
2019-05-20T02:21:41.863Z,10.50
2019-05-20T02:24:11.033Z,10.50
2019-05-20T02:26:40.032Z,10.50
2019-05-20T02:29:08.977Z,10.50
2019-05-20T02:31:39.432Z,10.50
2019-05-20T02:34:08.357Z,10.50
2019-05-20T02:36:37.374Z,10.50
2019-05-20T02:39:07.806Z,10.50
2019-05-20T02:41:37.136Z,10.50
2019-05-20T02:44:06.368Z,10.50
2019-05-20T02:46:35.521Z,10.50
2019-05-20T02:49:04.490Z,10.50
2019-05-20T02:51:33.605Z,10.50
2019-05-20T02:54:03.031Z,10.50
2019-05-20T02:56:32.437Z,10.50
2019-05-20T02:59:01.808Z,10.50
2019-05-20T03:01:30.921Z,10.50
2019-05-20T03:04:11.645Z,10.50
2019-05-20T03:06:30.841Z,10.60
2019-05-20T03:08:59.775Z,10.60
2019-05-20T03:11:28.985Z,10.60
2019-05-20T03:13:58.393Z,10.50
2019-05-20T03:16:27.300Z,10.50
2019-05-20T03:18:56.258Z,10.60
2019-05-20T03:21:25.511Z,10.50
2019-05-20T03:23:57.659Z,10.60
2019-05-20T03:26:26.762Z,10.50
2019-05-20T03:28:55.841Z,10.50
2019-05-20T03:31:24.731Z,10.50
2019-05-20T03:33:53.825Z,10.50
2019-05-20T03:36:22.869Z,10.60
2019-05-20T03:38:51.960Z,10.50
2019-05-20T03:41:20.903Z,10.50
2019-05-20T03:43:49.785Z,10.50
2019-05-20T03:46:20.752Z,10.50
2019-05-20T03:48:49.878Z,10.50
2019-05-20T03:51:18.816Z,10.50
2019-05-20T03:53:47.848Z,10.50
2019-05-20T03:56:16.969Z,10.50
2019-05-20T03:58:45.880Z,10.50
2019-05-20T04:01:15.521Z,10.50
2019-05-20T04:03:44.447Z,10.50
2019-05-20T04:06:13.545Z,10.50
2019-05-20T04:08:42.504Z,10.50
2019-05-20T04:11:11.537Z,10.50
2019-05-20T04:13:40.464Z,10.50
2019-05-20T04:16:09.834Z,10.50
2019-05-20T04:18:38.704Z,10.50
2019-05-20T04:21:07.817Z,10.50
2019-05-20T04:23:36.925Z,10.50
2019-05-20T04:26:06.568Z,10.50
2019-05-20T04:28:35.601Z,10.50
2019-05-20T04:31:05.152Z,10.50
2019-05-20T04:33:34.073Z,10.50
2019-05-20T04:36:03.088Z,10.50
2019-05-20T04:38:32.096Z,10.50
2019-05-20T04:41:01.231Z,10.50
2019-05-20T04:43:30.333Z,10.50
2019-05-20T04:46:00.866Z,10.50
2019-05-20T04:48:30.058Z,10.50
2019-05-20T04:50:59.233Z,10.50
2019-05-20T04:53:28.217Z,10.50
2019-05-20T04:55:57.209Z,10.50
2019-05-20T04:58:26.385Z,10.50
2019-05-20T05:00:56.731Z,10.50
2019-05-20T05:03:25.686Z,10.50
2019-05-20T05:05:54.751Z,10.50
2019-05-20T05:08:24.161Z,10.50
2019-05-20T05:10:53.767Z,10.50
2019-05-20T05:13:23.464Z,10.60
2019-05-20T05:15:53.582Z,10.60
2019-05-20T05:18:22.840Z,10.60
2019-05-20T05:20:52.103Z,10.60
2019-05-20T05:23:21.815Z,10.60
2019-05-20T05:25:50.800Z,10.70
2019-05-20T05:28:19.712Z,10.70
2019-05-20T05:30:48.944Z,10.70
2019-05-20T05:33:18.032Z,10.70
2019-05-20T05:35:53.214Z,10.70
2019-05-20T05:38:17.537Z,10.70
2019-05-20T05:40:46.496Z,10.80
2019-05-20T05:43:15.520Z,10.80
2019-05-20T05:45:44.568Z,10.90
2019-05-20T05:48:13.635Z,10.80
2019-05-20T05:50:42.826Z,10.90
2019-05-20T05:53:11.944Z,10.90
2019-05-20T05:55:41.145Z,10.90
2019-05-20T05:58:10.601Z,11.00
2019-05-20T06:00:40.111Z,11.00
2019-05-20T06:03:09.569Z,11.00
2019-05-20T06:05:38.640Z,11.00
2019-05-20T06:08:07.804Z,11.00
2019-05-20T06:10:37.017Z,11.00
2019-05-20T06:13:06.033Z,11.00
2019-05-20T06:15:35.159Z,11.10
2019-05-20T06:18:04.211Z,11.10
2019-05-20T06:20:33.320Z,11.10
2019-05-20T06:23:02.608Z,11.20
2019-05-20T06:25:31.823Z,11.20
2019-05-20T06:28:01.016Z,11.20
2019-05-20T06:30:39.024Z,11.20
2019-05-20T06:33:08.129Z,11.20
2019-05-20T06:35:38.243Z,11.20
2019-05-20T06:38:09.032Z,11.30
2019-05-20T06:40:38.377Z,11.30
2019-05-20T06:43:07.287Z,11.30
2019-05-20T06:45:37.272Z,11.30
2019-05-20T06:48:06.318Z,11.30
2019-05-20T06:50:35.672Z,11.30
2019-05-20T06:53:05.072Z,11.30
2019-05-20T06:55:34.097Z,11.30
2019-05-20T06:58:03.185Z,11.20
2019-05-20T07:00:36.926Z,11.20
2019-05-20T07:03:06.467Z,11.20
2019-05-20T07:05:35.873Z,11.30
2019-05-20T07:08:05.116Z,11.20
2019-05-20T07:10:34.022Z,11.20
2019-05-20T07:13:02.959Z,11.30
2019-05-20T07:15:32.020Z,11.30
2019-05-20T07:18:03.890Z,11.30
2019-05-20T07:20:32.896Z,11.40
2019-05-20T07:23:01.945Z,11.40
2019-05-20T07:25:30.853Z,11.40
2019-05-20T07:27:59.816Z,11.40
2019-05-20T07:30:29.069Z,11.50
2019-05-20T07:32:58.080Z,11.50
2019-05-20T07:35:30.816Z,11.50
2019-05-20T07:37:57.744Z,11.60
2019-05-20T07:40:31.167Z,11.70
2019-05-20T07:43:03.211Z,11.70
2019-05-20T07:45:34.727Z,11.70
2019-05-20T07:48:04.712Z,11.80
2019-05-20T07:50:36.088Z,11.80
2019-05-20T07:53:06.672Z,11.80
2019-05-20T07:55:38.648Z,11.80
2019-05-20T07:58:09.225Z,11.90
2019-05-20T08:00:38.618Z,12.00
2019-05-20T08:03:07.922Z,12.10
2019-05-20T08:05:37.258Z,12.20
2019-05-20T08:08:06.488Z,12.30
2019-05-20T08:10:35.456Z,12.40
2019-05-20T08:13:04.721Z,12.40
2019-05-20T08:15:33.768Z,12.60
2019-05-20T08:18:03.040Z,12.70
2019-05-20T08:20:32.394Z,12.80
2019-05-20T08:23:01.704Z,12.90
2019-05-20T08:25:31.192Z,12.90
2019-05-20T08:28:00.152Z,12.90
2019-05-20T08:30:35.399Z,13.10
2019-05-20T08:33:05.248Z,12.90
2019-05-20T08:35:34.345Z,12.90
2019-05-20T08:38:04.056Z,12.90
2019-05-20T08:40:33.276Z,13.10
2019-05-20T08:43:02.645Z,13.20
2019-05-20T08:45:32.103Z,13.20
2019-05-20T08:48:01.296Z,13.30
2019-05-20T08:50:30.780Z,13.40
2019-05-20T08:53:03.235Z,13.50
2019-05-20T08:55:34.659Z,13.60
2019-05-20T08:58:04.735Z,13.60
2019-05-20T09:00:35.080Z,13.70
2019-05-20T09:03:04.514Z,13.80
2019-05-20T09:05:33.961Z,13.80
2019-05-20T09:08:04.178Z,13.80
2019-05-20T09:10:33.986Z,13.80
2019-05-20T09:13:03.187Z,13.80
2019-05-20T09:15:35.067Z,13.60
2019-05-20T09:18:04.358Z,13.60
2019-05-20T09:20:33.545Z,13.60
2019-05-20T09:23:03.115Z,13.50
2019-05-20T09:25:33.294Z,13.70
2019-05-20T09:28:02.768Z,13.70
2019-05-20T09:30:32.549Z,13.70
2019-05-20T09:33:02.005Z,13.60
2019-05-20T09:35:31.089Z,13.50
2019-05-20T09:38:00.560Z,13.40
2019-05-20T09:40:40.294Z,13.30
2019-05-20T09:43:09.608Z,13.70
2019-05-20T09:45:38.834Z,13.90
2019-05-20T09:48:08.864Z,14.00
2019-05-20T09:50:38.398Z,14.20
2019-05-20T09:53:07.840Z,14.10
2019-05-20T09:55:37.361Z,13.80
2019-05-20T09:58:07.346Z,13.70
2019-05-20T10:00:37.387Z,13.80
2019-05-20T10:03:07.445Z,13.90
2019-05-20T10:05:37.570Z,13.90
2019-05-20T10:08:07.556Z,14.00
2019-05-20T10:10:36.838Z,13.80
2019-05-20T10:13:06.328Z,13.80
2019-05-20T10:15:35.504Z,13.80
2019-05-20T10:18:05.072Z,13.70
2019-05-20T10:20:34.529Z,13.70
2019-05-20T10:23:03.592Z,13.60
2019-05-20T10:25:32.704Z,13.60
2019-05-20T10:28:01.737Z,13.70
2019-05-20T10:30:30.778Z,13.80
2019-05-20T10:32:59.930Z,14.00
2019-05-20T10:35:29.675Z,14.10
2019-05-20T10:37:58.731Z,14.20
2019-05-20T10:40:27.730Z,14.30
2019-05-20T10:42:59.987Z,14.30
2019-05-20T10:45:29.361Z,14.40
2019-05-20T10:47:58.544Z,14.50
2019-05-20T10:50:27.538Z,14.50
2019-05-20T10:52:56.635Z,14.50
2019-05-20T10:55:25.609Z,14.50
2019-05-20T10:57:55.004Z,14.50
2019-05-20T11:00:24.467Z,14.50
2019-05-20T11:02:53.638Z,14.60
2019-05-20T11:05:22.963Z,14.70
2019-05-20T11:07:52.197Z,14.90
2019-05-20T11:10:21.649Z,14.70
2019-05-20T11:12:50.664Z,14.60
2019-05-20T11:15:19.632Z,14.70
2019-05-20T11:17:50.512Z,14.80
2019-05-20T11:20:19.442Z,14.90
2019-05-20T11:22:48.587Z,15.10
2019-05-20T11:25:18.768Z,15.10
2019-05-20T11:27:47.962Z,15.20
2019-05-20T11:30:17.272Z,15.40
2019-05-20T11:32:46.848Z,15.50
2019-05-20T11:35:16.528Z,15.60
2019-05-20T11:37:45.710Z,15.80
2019-05-20T11:40:15.396Z,15.80
2019-05-20T11:42:44.954Z,15.90
2019-05-20T11:45:14.337Z,16.00
2019-05-20T11:47:43.571Z,16.20
2019-05-20T11:50:13.622Z,16.50
2019-05-20T11:52:43.594Z,16.70
2019-05-20T11:55:13.669Z,16.50
2019-05-20T11:57:43.368Z,16.70
2019-05-20T12:00:15.333Z,16.70
2019-05-20T12:02:45.501Z,16.90
2019-05-20T12:05:15.257Z,17.40
2019-05-20T12:07:44.689Z,17.70
2019-05-20T12:10:15.577Z,18.20
2019-05-20T12:12:46.136Z,18.70
2019-05-20T12:15:15.840Z,18.90
2019-05-20T12:17:45.236Z,18.60
2019-05-20T12:20:14.552Z,18.50
2019-05-20T12:22:43.852Z,18.70
2019-05-20T12:25:13.626Z,18.50
2019-05-20T12:27:44.267Z,18.60
2019-05-20T12:30:13.646Z,18.60
2019-05-20T12:32:42.753Z,18.30
2019-05-20T12:35:12.098Z,18.10
2019-05-20T12:37:41.101Z,18.30
2019-05-20T12:40:10.912Z,18.20
2019-05-20T12:42:39.928Z,18.20
2019-05-20T12:45:10.519Z,18.30
2019-05-20T12:47:39.485Z,18.30
2019-05-20T12:50:09.486Z,18.10
2019-05-20T12:52:38.342Z,17.80
2019-05-20T12:55:09.817Z,18.10
2019-05-20T12:57:39.199Z,18.00
2019-05-20T13:00:10.949Z,17.80
2019-05-20T13:02:41.243Z,17.80
2019-05-20T13:05:10.913Z,17.80
2019-05-20T13:07:42.754Z,17.90
2019-05-20T13:10:27.897Z,17.90
2019-05-20T13:12:44.081Z,17.90
2019-05-20T13:15:13.297Z,17.90
2019-05-20T13:17:44.710Z,17.50
2019-05-20T13:20:13.808Z,17.10
2019-05-20T13:22:42.817Z,17.00
2019-05-20T13:25:13.313Z,16.80
2019-05-20T13:27:42.242Z,17.10
2019-05-20T13:30:12.083Z,17.30
2019-05-20T13:32:40.930Z,17.40
2019-05-20T13:35:10.440Z,17.20
2019-05-20T13:37:39.441Z,17.30
2019-05-20T13:40:10.275Z,17.30
2019-05-20T13:42:39.541Z,17.00
2019-05-20T13:45:09.440Z,17.00
2019-05-20T13:47:38.531Z,17.20
2019-05-20T13:50:09.656Z,17.10
2019-05-20T13:52:38.743Z,17.10
2019-05-20T13:55:07.935Z,17.10
2019-05-20T13:57:37.088Z,17.10
2019-05-20T14:00:09.731Z,17.20
2019-05-20T14:02:39.123Z,17.30
2019-05-20T14:05:08.450Z,17.50
2019-05-20T14:07:37.643Z,17.80
2019-05-20T14:10:07.904Z,18.10
2019-05-20T14:12:37.074Z,18.20
2019-05-20T14:15:07.857Z,18.10
2019-05-20T14:17:37.000Z,18.10
2019-05-20T14:20:06.825Z,18.10
2019-05-20T14:22:35.763Z,17.70
2019-05-20T14:25:07.101Z,17.70
2019-05-20T14:27:36.292Z,17.30
2019-05-20T14:30:09.245Z,17.10
2019-05-20T14:32:38.266Z,16.90
2019-05-20T14:35:07.610Z,16.80
2019-05-20T14:37:36.625Z,17.10
2019-05-20T14:40:07.482Z,17.50
2019-05-20T14:42:36.453Z,17.80
2019-05-20T14:45:07.371Z,18.00
2019-05-20T14:47:36.330Z,18.00
2019-05-20T14:50:07.553Z,18.20
2019-05-20T14:52:42.610Z,18.10
2019-05-20T14:55:13.706Z,18.30
2019-05-20T14:57:44.179Z,18.60
2019-05-20T15:00:14.052Z,18.80
2019-05-20T15:02:43.457Z,18.90
2019-05-20T15:05:12.811Z,19.00
2019-05-20T15:07:41.769Z,19.10
2019-05-20T15:10:11.391Z,19.00
2019-05-20T15:12:40.375Z,18.90
2019-05-20T15:15:09.967Z,18.60
2019-05-20T15:17:39.224Z,18.20
2019-05-20T15:20:08.863Z,18.10
2019-05-20T15:22:37.848Z,17.90
2019-05-20T15:25:08.382Z,17.80
2019-05-20T15:27:37.416Z,17.70
2019-05-20T15:30:09.080Z,17.70
2019-05-20T15:32:38.104Z,17.80
2019-05-20T15:35:08.043Z,17.80
2019-05-20T15:37:37.161Z,17.80
2019-05-20T15:40:06.645Z,18.00
2019-05-20T15:42:35.831Z,17.70
2019-05-20T15:45:10.033Z,17.90
2019-05-20T15:47:42.601Z,17.50
2019-05-20T15:50:12.304Z,17.20
2019-05-20T15:52:41.691Z,17.10
2019-05-20T15:55:14.049Z,17.00
2019-05-20T15:57:43.033Z,17.10
2019-05-20T16:00:13.035Z,17.50
2019-05-20T16:02:42.297Z,17.90
2019-05-20T16:05:11.698Z,18.10
2019-05-20T16:07:40.871Z,18.30
2019-05-20T16:10:10.281Z,18.40
2019-05-20T16:12:40.369Z,18.20
2019-05-20T16:15:10.088Z,18.30
2019-05-20T16:17:39.674Z,18.10
2019-05-20T16:20:09.914Z,17.80
2019-05-20T16:22:39.300Z,17.40
2019-05-20T16:25:09.313Z,17.20
2019-05-20T16:27:40.309Z,17.10
2019-05-20T16:30:11.361Z,17.00
2019-05-20T16:32:40.767Z,17.00
2019-05-20T16:35:10.532Z,16.90
2019-05-20T16:37:40.450Z,16.90
2019-05-20T16:40:10.901Z,16.70
2019-05-20T16:42:40.810Z,16.60
2019-05-20T16:45:12.359Z,16.50
2019-05-20T16:47:42.444Z,16.20
2019-05-20T16:50:12.737Z,16.00
2019-05-20T16:52:42.818Z,15.80
2019-05-20T16:55:15.074Z,15.60
2019-05-20T16:57:44.452Z,15.40
2019-05-20T17:00:29.830Z,15.20
2019-05-20T17:02:45.650Z,15.10
2019-05-20T17:05:15.690Z,15.10
2019-05-20T17:07:46.201Z,15.10
2019-05-20T17:10:15.904Z,15.10
2019-05-20T17:12:48.284Z,15.10
2019-05-20T17:15:18.545Z,15.20
2019-05-20T17:17:49.112Z,15.20
2019-05-20T17:20:18.506Z,15.20
2019-05-20T17:22:50.020Z,15.30
2019-05-20T17:25:19.965Z,15.40
2019-05-20T17:27:49.432Z,15.50
2019-05-20T17:30:18.760Z,15.50
2019-05-20T17:32:47.973Z,15.60
2019-05-20T17:35:17.505Z,15.80
2019-05-20T17:37:46.705Z,16.00
2019-05-20T17:40:16.248Z,15.90
2019-05-20T17:42:45.858Z,15.90
2019-05-20T17:45:16.904Z,16.00
2019-05-20T17:47:49.128Z,16.00
2019-05-20T17:50:19.352Z,16.10
2019-05-20T17:52:48.648Z,16.10
2019-05-20T17:55:17.816Z,16.00
2019-05-20T17:57:46.928Z,15.80
2019-05-20T18:00:18.353Z,15.70
2019-05-20T18:02:47.705Z,15.60
2019-05-20T18:05:17.456Z,15.30
2019-05-20T18:07:47.091Z,15.20
2019-05-20T18:10:20.403Z,15.00
2019-05-20T18:12:50.104Z,14.90
2019-05-20T18:15:19.578Z,14.70
2019-05-20T18:17:50.346Z,14.50
2019-05-20T18:20:19.796Z,14.30
2019-05-20T18:22:49.516Z,14.30
2019-05-20T18:25:19.778Z,14.00
2019-05-20T18:27:49.551Z,13.80
2019-05-20T18:30:18.627Z,13.50
2019-05-20T18:32:48.296Z,13.30
2019-05-20T18:35:17.993Z,13.20
2019-05-20T18:37:47.187Z,13.10
2019-05-20T18:40:16.820Z,13.00
2019-05-20T18:42:45.990Z,13.10
2019-05-20T18:45:16.249Z,13.20
2019-05-20T18:47:47.736Z,13.00
2019-05-20T18:50:17.163Z,13.00
2019-05-20T18:52:46.105Z,12.80
2019-05-20T18:55:15.937Z,12.90
2019-05-20T18:57:44.826Z,12.80
2019-05-20T19:00:14.960Z,12.90
2019-05-20T19:02:44.249Z,12.90
2019-05-20T19:05:13.963Z,12.70
2019-05-20T19:07:43.259Z,12.60
2019-05-20T19:10:12.872Z,12.60
2019-05-20T19:12:43.545Z,12.70
2019-05-20T19:15:15.593Z,12.70
2019-05-20T19:17:44.842Z,12.80
2019-05-20T19:20:14.008Z,12.70
2019-05-20T19:22:45.639Z,12.60
2019-05-20T19:25:15.096Z,12.50
2019-05-20T19:27:44.059Z,12.30
2019-05-20T19:30:15.867Z,12.20
2019-05-20T19:32:49.881Z,12.20
2019-05-20T19:35:23.160Z,12.10
2019-05-20T19:37:57.337Z,12.10
2019-05-20T19:40:30.768Z,12.00
2019-05-20T19:43:02.553Z,11.90
2019-05-20T19:45:38.425Z,11.80
2019-05-20T19:48:07.129Z,11.70
2019-05-20T19:50:36.284Z,11.60
2019-05-20T19:53:05.339Z,11.60
2019-05-20T19:55:34.672Z,11.60
2019-05-20T19:58:03.722Z,11.50
2019-05-20T20:00:33.145Z,11.50
2019-05-20T20:03:02.747Z,11.50
2019-05-20T20:05:32.168Z,11.50
2019-05-20T20:08:01.398Z,11.50
2019-05-20T20:10:31.674Z,11.50
2019-05-20T20:13:01.200Z,11.40
2019-05-20T20:15:30.376Z,11.30
2019-05-20T20:17:59.817Z,11.30
2019-05-20T20:20:29.618Z,11.20
2019-05-20T20:22:59.960Z,11.10
2019-05-20T20:25:29.315Z,11.10
2019-05-20T20:27:59.563Z,11.00
2019-05-20T20:30:29.176Z,11.00
2019-05-20T20:32:58.554Z,10.80
2019-05-20T20:35:37.606Z,10.80
2019-05-20T20:38:01.003Z,10.70
2019-05-20T20:40:30.875Z,10.70
2019-05-20T20:43:00.466Z,10.60
2019-05-20T20:45:29.832Z,10.70
2019-05-20T20:48:04.241Z,10.60
2019-05-20T20:50:31.041Z,10.60
2019-05-20T20:53:00.664Z,10.60
2019-05-20T20:55:30.481Z,10.60
2019-05-20T20:57:59.527Z,10.60
2019-05-20T21:00:29.008Z,10.60
2019-05-20T21:02:58.263Z,10.60
2019-05-20T21:05:27.640Z,10.60
2019-05-20T21:07:56.835Z,10.60
2019-05-20T21:10:26.105Z,10.70
2019-05-20T21:12:55.939Z,10.60
2019-05-20T21:15:25.206Z,10.70
2019-05-20T21:17:54.434Z,10.70
2019-05-20T21:20:23.424Z,10.70
2019-05-20T21:22:52.448Z,10.60
2019-05-20T21:25:21.617Z,10.70
2019-05-20T21:27:50.704Z,10.70
2019-05-20T21:30:19.872Z,10.70
2019-05-20T21:32:49.457Z,10.70
2019-05-20T21:35:18.880Z,10.70
2019-05-20T21:37:47.920Z,10.70
2019-05-20T21:40:17.451Z,10.60
2019-05-20T21:42:46.840Z,10.60
2019-05-20T21:45:16.313Z,10.60
2019-05-20T21:47:45.392Z,10.50
2019-05-20T21:50:14.591Z,10.60
2019-05-20T21:52:44.159Z,10.60
2019-05-20T21:55:13.548Z,10.60
2019-05-20T21:57:46.345Z,10.60
2019-05-20T22:00:33.184Z,10.60
2019-05-20T22:03:02.837Z,10.60
2019-05-20T22:05:33.912Z,10.70
2019-05-20T22:08:04.210Z,10.70
2019-05-20T22:10:34.688Z,10.70
2019-05-20T22:13:04.160Z,10.70
2019-05-20T22:15:33.268Z,10.70
2019-05-20T22:18:02.257Z,10.70
2019-05-20T22:20:31.232Z,10.60
2019-05-20T22:23:01.800Z,10.70
2019-05-20T22:25:31.072Z,10.60
2019-05-20T22:27:59.968Z,10.60
2019-05-20T22:30:29.032Z,10.50
2019-05-20T22:32:58.078Z,10.50
2019-05-20T22:35:27.200Z,10.40
2019-05-20T22:37:56.160Z,10.40
2019-05-20T22:40:25.247Z,10.40
2019-05-20T22:42:54.360Z,10.30
2019-05-20T22:45:23.528Z,10.30
2019-05-20T22:47:52.608Z,10.30
2019-05-20T22:50:21.664Z,10.20
2019-05-20T22:52:50.665Z,10.20
2019-05-20T22:55:19.936Z,10.20
2019-05-20T22:57:49.337Z,10.20
2019-05-20T23:00:19.265Z,10.20
2019-05-20T23:02:48.348Z,10.10
2019-05-20T23:05:17.580Z,9.90
2019-05-20T23:07:46.997Z,9.90
2019-05-20T23:10:16.848Z,9.80
2019-05-20T23:12:45.840Z,9.90
2019-05-20T23:15:14.889Z,9.90
2019-05-20T23:17:43.832Z,9.90
2019-05-20T23:20:13.593Z,9.80
2019-05-20T23:22:42.560Z,9.90
2019-05-20T23:25:11.944Z,9.90
2019-05-20T23:27:41.313Z,9.90
2019-05-20T23:30:10.847Z,10.00
2019-05-20T23:32:39.841Z,10.00
2019-05-20T23:35:08.880Z,10.00
2019-05-20T23:37:37.855Z,10.00
2019-05-20T23:40:08.212Z,10.10
2019-05-20T23:42:37.471Z,10.00
2019-05-20T23:45:07.986Z,10.00
2019-05-20T23:47:36.864Z,10.00
2019-05-20T23:50:06.303Z,10.00
2019-05-20T23:52:35.457Z,10.00
2019-05-20T23:55:08.439Z,10.10
2019-05-20T23:57:37.382Z,10.10
